createdAt,value
2022-11-10T00:01:34.582Z,20.50
2022-11-10T00:04:56.476Z,19.60
2022-11-10T00:08:18.241Z,20.50
2022-11-10T00:11:40.150Z,19.40
2022-11-10T00:15:20.386Z,19.10
2022-11-10T00:18:42.282Z,20.00
2022-11-10T00:22:03.918Z,19.00
2022-11-10T00:25:26.727Z,19.40
2022-11-10T00:28:48.001Z,19.70
2022-11-10T00:32:09.941Z,21.20
2022-11-10T00:35:31.693Z,19.50
2022-11-10T00:38:53.134Z,20.10
2022-11-10T00:42:15.067Z,18.90
2022-11-10T00:45:36.505Z,19.30
2022-11-10T00:48:58.380Z,18.80
2022-11-10T00:52:20.299Z,19.00
2022-11-10T00:55:42.692Z,18.90
2022-11-10T00:59:04.577Z,19.10
2022-11-10T01:02:26.453Z,19.60
2022-11-10T01:05:48.161Z,19.30
2022-11-10T01:09:09.729Z,19.90
2022-11-10T01:12:31.890Z,18.30
2022-11-10T01:15:53.615Z,19.10
2022-11-10T01:19:15.325Z,18.80
2022-11-10T01:22:36.953Z,17.90
2022-11-10T01:26:00.373Z,13.60
2022-11-10T01:29:22.174Z,19.20
2022-11-10T01:32:44.082Z,18.40
2022-11-10T01:36:07.044Z,18.10
2022-11-10T01:39:28.406Z,18.40
2022-11-10T01:42:56.646Z,18.30
2022-11-10T01:46:18.170Z,18.50
2022-11-10T01:49:39.840Z,18.90
2022-11-10T01:53:05.097Z,17.80
2022-11-10T01:56:29.978Z,18.30
2022-11-10T01:59:51.502Z,18.20
2022-11-10T02:03:24.175Z,18.90
2022-11-10T02:06:48.487Z,18.50
2022-11-10T02:10:16.757Z,19.00
2022-11-10T02:13:38.478Z,18.80
2022-11-10T02:17:00.726Z,18.90
2022-11-10T02:20:22.462Z,19.10
2022-11-10T02:23:50.674Z,11.40
2022-11-10T02:27:11.943Z,18.70
2022-11-10T02:30:33.209Z,19.00
2022-11-10T02:33:54.968Z,18.20
2022-11-10T02:37:17.234Z,18.60
2022-11-10T02:40:38.710Z,20.50
2022-11-10T02:44:00.915Z,19.80
2022-11-10T02:47:23.619Z,18.90
2022-11-10T02:50:45.405Z,19.10
2022-11-10T02:54:07.265Z,19.00
2022-11-10T02:57:28.964Z,19.00
2022-11-10T03:00:50.586Z,20.70
2022-11-10T03:04:12.186Z,20.20
2022-11-10T03:07:34.122Z,20.00
2022-11-10T03:10:56.756Z,20.20
2022-11-10T03:14:18.550Z,19.10
2022-11-10T03:17:41.041Z,19.90
2022-11-10T03:24:24.736Z,18.60
2022-11-10T03:27:46.630Z,19.30
2022-11-10T03:31:08.504Z,19.50
2022-11-10T03:34:31.953Z,20.60
2022-11-10T03:37:54.025Z,20.40
2022-11-10T03:41:20.087Z,19.90
2022-11-10T03:44:42.447Z,20.80
2022-11-10T03:48:04.034Z,20.10
2022-11-10T03:51:25.688Z,20.20
2022-11-10T03:54:47.148Z,18.80
2022-11-10T03:58:08.782Z,20.10
2022-11-10T04:01:30.585Z,19.70
2022-11-10T04:05:11.128Z,21.30
2022-11-10T04:08:51.061Z,21.20
2022-11-10T04:12:31.095Z,20.00
2022-11-10T04:15:52.705Z,20.60
2022-11-10T04:19:14.511Z,21.20
2022-11-10T04:22:54.361Z,21.20
2022-11-10T04:26:32.783Z,20.40
2022-11-10T04:29:54.134Z,20.40
2022-11-10T04:33:15.673Z,20.50
2022-11-10T04:36:38.856Z,20.70
2022-11-10T04:40:00.428Z,20.70
2022-11-10T04:43:22.521Z,20.80
2022-11-10T04:46:44.655Z,21.80
2022-11-10T04:50:06.887Z,21.60
2022-11-10T04:53:28.761Z,21.60
2022-11-10T04:56:50.320Z,22.10
2022-11-10T05:00:12.984Z,20.70
2022-11-10T05:03:34.485Z,21.00
2022-11-10T05:06:56.239Z,21.30
2022-11-10T05:10:18.028Z,21.70
2022-11-10T05:13:40.056Z,20.90
2022-11-10T05:17:01.660Z,21.60
2022-11-10T05:20:25.454Z,21.10
2022-11-10T05:23:46.750Z,21.60
2022-11-10T05:27:08.546Z,23.10
2022-11-10T05:30:30.193Z,23.10
2022-11-10T05:33:51.629Z,22.10
2022-11-10T05:37:13.382Z,23.70
2022-11-10T05:40:35.399Z,27.60
2022-11-10T05:43:56.884Z,23.60
2022-11-10T05:47:18.262Z,22.90
2022-11-10T05:50:40.196Z,22.60
2022-11-10T05:54:02.025Z,23.50
2022-11-10T05:57:23.839Z,22.90
2022-11-10T06:00:45.499Z,24.40
2022-11-10T06:04:07.058Z,24.30
2022-11-10T06:07:28.641Z,24.00
2022-11-10T06:10:50.421Z,23.80
2022-11-10T06:14:12.167Z,23.50
2022-11-10T06:17:34.125Z,18.60
2022-11-10T06:20:55.758Z,23.30
2022-11-10T06:24:17.730Z,23.90
2022-11-10T06:27:43.337Z,24.50
2022-11-10T06:31:05.218Z,24.30
2022-11-10T06:34:27.374Z,23.80
2022-11-10T06:38:06.562Z,25.80
2022-11-10T06:41:28.253Z,24.80
2022-11-10T06:44:49.910Z,26.10
2022-11-10T06:48:14.147Z,27.30
2022-11-10T06:51:37.106Z,25.50
2022-11-10T06:54:59.309Z,26.80
2022-11-10T06:58:20.747Z,28.10
2022-11-10T07:01:42.324Z,27.30
2022-11-10T07:05:04.532Z,27.90
2022-11-10T07:08:26.112Z,26.60
2022-11-10T07:11:47.848Z,24.30
2022-11-10T07:15:10.083Z,25.80
2022-11-10T07:18:31.834Z,25.20
2022-11-10T07:21:53.673Z,25.20
2022-11-10T07:25:15.563Z,25.40
2022-11-10T07:28:37.417Z,25.80
2022-11-10T07:31:59.585Z,20.20
2022-11-10T07:35:21.033Z,26.10
2022-11-10T07:38:42.705Z,21.50
2022-11-10T07:42:04.455Z,28.50
2022-11-10T07:45:27.434Z,24.90
2022-11-10T07:48:49.208Z,23.80
2022-11-10T07:52:11.084Z,24.60
2022-11-10T07:55:33.770Z,23.30
2022-11-10T07:58:55.809Z,23.20
2022-11-10T08:02:17.460Z,23.60
2022-11-10T08:05:40.208Z,25.00
2022-11-10T08:09:03.712Z,26.20
2022-11-10T08:12:29.927Z,26.10
2022-11-10T08:15:54.388Z,25.80
2022-11-10T08:19:15.738Z,23.90
2022-11-10T08:22:37.141Z,24.40
2022-11-10T08:26:01.032Z,25.70
2022-11-10T08:29:22.799Z,24.20
2022-11-10T08:32:44.498Z,23.80
2022-11-10T08:36:06.576Z,23.60
2022-11-10T08:39:38.663Z,22.70
2022-11-10T08:46:23.464Z,20.80
2022-11-10T08:49:44.962Z,22.80
2022-11-10T08:53:10.526Z,24.70
2022-11-10T08:56:32.228Z,22.30
2022-11-10T08:59:53.815Z,22.00
2022-11-10T09:03:18.768Z,22.50
2022-11-10T09:06:40.602Z,22.10
2022-11-10T09:10:07.883Z,22.50
2022-11-10T09:13:31.250Z,21.10
2022-11-10T09:16:53.018Z,22.80
2022-11-10T09:20:15.250Z,21.70
2022-11-10T09:23:36.836Z,20.80
2022-11-10T09:26:58.501Z,22.50
2022-11-10T09:30:20.300Z,20.50
2022-11-10T09:33:41.872Z,20.70
2022-11-10T09:37:03.899Z,19.90
2022-11-10T09:40:48.868Z,21.00
2022-11-10T09:44:25.047Z,20.60
2022-11-10T09:47:58.385Z,20.60
2022-11-10T09:51:35.189Z,19.80
2022-11-10T09:55:04.524Z,19.10
2022-11-10T09:58:33.625Z,18.60
2022-11-10T10:01:58.190Z,18.40
2022-11-10T10:05:35.229Z,18.20
2022-11-10T10:09:44.692Z,18.60
2022-11-10T10:13:06.416Z,19.00
2022-11-10T10:16:43.067Z,18.10
2022-11-10T10:20:20.014Z,18.00
2022-11-10T10:27:34.947Z,19.00
2022-11-10T10:31:15.304Z,19.30
2022-11-10T10:34:37.127Z,17.10
2022-11-10T10:38:00.980Z,19.60
2022-11-10T10:41:27.433Z,24.70
2022-11-10T10:45:13.660Z,21.00
2022-11-10T10:48:38.606Z,18.60
2022-11-10T10:52:14.328Z,17.60
2022-11-10T10:55:37.219Z,15.30
2022-11-10T10:59:04.884Z,14.50
2022-11-10T11:02:34.207Z,13.90
2022-11-10T11:06:21.291Z,14.40
2022-11-10T11:09:44.565Z,13.40
2022-11-10T11:16:49.859Z,12.40
2022-11-10T11:20:15.449Z,11.70
2022-11-10T11:24:01.635Z,11.90
2022-11-10T11:27:57.070Z,11.60
2022-11-10T11:31:24.720Z,10.80
2022-11-10T11:34:49.358Z,9.80
2022-11-10T11:38:15.437Z,8.80
2022-11-10T11:42:18.514Z,9.30
2022-11-10T11:46:31.111Z,8.60
2022-11-10T11:50:01.548Z,8.90
2022-11-10T11:54:04.481Z,8.00
2022-11-10T11:57:41.053Z,9.00
2022-11-10T12:01:11.856Z,8.40
2022-11-10T12:05:03.956Z,9.10
2022-11-10T12:08:42.950Z,8.90
2022-11-10T12:12:17.173Z,7.70
2022-11-10T12:15:43.330Z,6.40
2022-11-10T12:19:23.702Z,7.00
2022-11-10T12:23:13.217Z,6.20
2022-11-10T12:26:43.526Z,5.80
2022-11-10T12:30:11.824Z,6.00
2022-11-10T12:33:45.676Z,6.30
2022-11-10T12:37:18.058Z,4.90
2022-11-10T12:40:48.659Z,5.00
2022-11-10T12:44:31.152Z,5.20
2022-11-10T12:47:55.353Z,5.10
2022-11-10T12:51:48.011Z,5.40
2022-11-10T12:55:21.347Z,5.70
2022-11-10T12:58:43.202Z,6.10
2022-11-10T13:02:25.140Z,4.80
2022-11-10T13:05:55.768Z,4.80
2022-11-10T13:09:31.283Z,4.70
2022-11-10T13:13:05.295Z,4.40
2022-11-10T13:16:54.529Z,4.20
2022-11-10T13:20:46.416Z,4.40
2022-11-10T13:24:19.802Z,4.60
2022-11-10T13:27:41.561Z,4.00
2022-11-10T13:31:28.701Z,4.80
2022-11-10T13:34:50.519Z,6.50
2022-11-10T13:38:38.152Z,5.40
2022-11-10T13:42:03.120Z,5.00
2022-11-10T13:45:44.782Z,4.90
2022-11-10T13:49:25.052Z,4.60
2022-11-10T13:52:59.130Z,5.60
2022-11-10T13:56:50.038Z,4.90
2022-11-10T14:00:14.793Z,4.80
2022-11-10T14:03:45.600Z,5.20
2022-11-10T14:07:17.690Z,4.70
2022-11-10T14:11:11.498Z,4.90
2022-11-10T14:14:51.527Z,4.50
2022-11-10T14:18:25.118Z,4.50
2022-11-10T14:22:03.618Z,4.80
2022-11-10T14:25:40.002Z,4.50
2022-11-10T14:29:32.392Z,5.00
2022-11-10T14:33:06.619Z,5.30
2022-11-10T14:36:28.142Z,5.80
2022-11-10T14:40:15.572Z,6.30
2022-11-10T14:43:39.613Z,6.40
2022-11-10T14:47:24.581Z,5.60
2022-11-10T14:50:46.991Z,7.80
2022-11-10T14:57:34.674Z,7.80
2022-11-10T15:00:56.252Z,9.10
2022-11-10T15:04:18.365Z,10.50
2022-11-10T15:07:40.773Z,11.30
2022-11-10T15:11:02.415Z,10.70
2022-11-10T15:14:46.952Z,8.30
2022-11-10T15:18:30.152Z,10.60
2022-11-10T15:21:52.222Z,11.90
2022-11-10T15:25:18.388Z,10.80
2022-11-10T15:28:42.363Z,10.30
2022-11-10T15:32:07.120Z,11.10
2022-11-10T15:35:32.328Z,11.40
2022-11-10T15:39:15.616Z,10.50
2022-11-10T15:42:37.387Z,10.90
2022-11-10T15:46:03.403Z,10.00
2022-11-10T15:49:33.905Z,10.80
2022-11-10T15:52:56.317Z,11.00
2022-11-10T15:56:23.644Z,11.20
2022-11-10T15:59:45.704Z,10.00
2022-11-10T16:03:10.787Z,9.70
2022-11-10T16:06:32.845Z,9.80
2022-11-10T16:09:54.453Z,8.90
2022-11-10T16:13:24.135Z,11.10
2022-11-10T16:16:46.420Z,11.80
2022-11-10T16:20:14.621Z,14.60
2022-11-10T16:23:36.087Z,14.30
2022-11-10T16:26:58.116Z,15.50
2022-11-10T16:30:19.766Z,13.60
2022-11-10T16:33:41.655Z,13.90
2022-11-10T16:37:03.471Z,13.30
2022-11-10T16:40:25.154Z,12.80
2022-11-10T16:43:46.870Z,14.10
2022-11-10T16:47:18.555Z,14.50
2022-11-10T16:50:40.189Z,14.30
2022-11-10T16:54:01.757Z,13.20
2022-11-10T16:57:23.847Z,15.20
2022-11-10T17:00:48.258Z,15.20
2022-11-10T17:04:13.980Z,14.90
2022-11-10T17:07:36.073Z,15.00
2022-11-10T17:10:58.429Z,15.60
2022-11-10T17:14:20.637Z,16.20
2022-11-10T17:17:45.578Z,16.10
2022-11-10T17:21:07.662Z,13.80
2022-11-10T17:24:29.730Z,14.90
2022-11-10T17:27:51.874Z,14.40
2022-11-10T17:31:14.565Z,13.40
2022-11-10T17:37:59.611Z,13.60
2022-11-10T17:41:21.905Z,15.80
2022-11-10T17:44:44.493Z,16.60
2022-11-10T17:48:08.085Z,18.10
2022-11-10T17:51:32.864Z,19.80
2022-11-10T17:54:54.530Z,18.80
2022-11-10T17:58:17.153Z,17.00
2022-11-10T18:05:00.471Z,16.00
2022-11-10T18:08:22.275Z,16.50
2022-11-10T18:11:43.915Z,17.30
2022-11-10T18:15:05.647Z,18.70
2022-11-10T18:18:59.497Z,14.40
2022-11-10T18:22:44.518Z,17.10
2022-11-10T18:26:11.445Z,16.80
2022-11-10T18:29:32.914Z,17.20
2022-11-10T18:32:54.603Z,16.60
2022-11-10T18:36:16.585Z,17.00
2022-11-10T18:39:38.454Z,15.00
2022-11-10T18:43:05.939Z,15.00
2022-11-10T18:46:28.787Z,14.70
2022-11-10T18:49:50.344Z,14.70
2022-11-10T18:53:12.001Z,15.00
2022-11-10T18:56:33.609Z,14.20
2022-11-10T18:59:55.634Z,14.30
2022-11-10T19:03:17.060Z,15.60
2022-11-10T19:06:39.032Z,16.80
2022-11-10T19:10:01.254Z,33.20
2022-11-10T19:13:24.206Z,32.60
2022-11-10T19:16:49.309Z,29.80
2022-11-10T19:20:12.946Z,26.70
2022-11-10T19:23:34.833Z,24.40
2022-11-10T19:26:56.728Z,24.00
2022-11-10T19:30:18.534Z,25.20
2022-11-10T19:33:42.586Z,25.10
2022-11-10T19:37:04.295Z,25.10
2022-11-10T19:40:25.901Z,23.00
2022-11-10T19:43:47.927Z,24.60
2022-11-10T19:47:09.751Z,27.60
2022-11-10T19:50:31.038Z,30.40
2022-11-10T19:53:58.999Z,29.60
2022-11-10T19:57:20.609Z,29.80
2022-11-10T20:00:47.745Z,28.90
2022-11-10T20:04:10.006Z,28.80
2022-11-10T20:07:49.907Z,25.70
2022-11-10T20:11:26.064Z,26.30
2022-11-10T20:14:47.816Z,24.50
2022-11-10T20:18:10.891Z,23.70
2022-11-10T20:21:32.204Z,23.40
2022-11-10T20:24:53.870Z,25.20
2022-11-10T20:28:15.688Z,23.10
2022-11-10T20:31:38.575Z,22.00
2022-11-10T20:35:00.697Z,22.70
2022-11-10T20:38:22.301Z,22.50
2022-11-10T20:41:44.389Z,21.60
2022-11-10T20:45:06.602Z,22.70
2022-11-10T20:48:32.904Z,22.50
2022-11-10T20:52:01.432Z,22.60
2022-11-10T20:55:51.578Z,22.10
2022-11-10T20:59:04.561Z,22.40
2022-11-10T21:02:26.723Z,24.10
2022-11-10T21:05:54.675Z,21.90
2022-11-10T21:09:16.464Z,23.20
2022-11-10T21:12:49.976Z,22.00
2022-11-10T21:16:11.518Z,21.70
2022-11-10T21:19:34.960Z,21.00
2022-11-10T21:23:02.034Z,20.00
2022-11-10T21:26:24.916Z,20.30
2022-11-10T21:29:46.719Z,19.80
2022-11-10T21:33:09.369Z,18.80
2022-11-10T21:36:31.677Z,18.00
2022-11-10T21:39:53.492Z,18.70
2022-11-10T21:43:15.153Z,19.50
2022-11-10T21:46:37.009Z,20.60
2022-11-10T21:49:59.576Z,15.20
2022-11-10T21:53:21.766Z,21.50
2022-11-10T21:56:43.717Z,20.80
2022-11-10T22:00:05.796Z,23.20
2022-11-10T22:03:28.864Z,21.20
2022-11-10T22:07:08.878Z,20.40
2022-11-10T22:10:49.370Z,20.20
2022-11-10T22:14:34.800Z,18.90
2022-11-10T22:18:14.849Z,19.50
2022-11-10T22:21:37.046Z,19.60
2022-11-10T22:24:58.626Z,18.80
2022-11-10T22:28:20.439Z,19.40
2022-11-10T22:31:42.430Z,20.40
2022-11-10T22:35:04.080Z,20.00
2022-11-10T22:38:26.404Z,18.80
2022-11-10T22:42:06.808Z,20.40
2022-11-10T22:45:28.992Z,20.70
2022-11-10T22:48:50.751Z,20.40
2022-11-10T22:52:12.317Z,20.90
2022-11-10T22:55:33.986Z,21.90
2022-11-10T22:58:59.839Z,22.50
2022-11-10T23:02:21.900Z,21.40
2022-11-10T23:05:43.527Z,20.50
2022-11-10T23:09:05.444Z,20.80
2022-11-10T23:12:26.932Z,21.70
2022-11-10T23:15:52.147Z,21.90
2022-11-10T23:19:13.734Z,23.80
2022-11-10T23:22:35.510Z,21.50
2022-11-10T23:26:07.775Z,22.20
2022-11-10T23:29:29.645Z,22.30
2022-11-10T23:32:51.365Z,22.70
2022-11-10T23:36:14.673Z,24.50
2022-11-10T23:39:36.339Z,24.20
2022-11-10T23:42:57.939Z,22.90
2022-11-10T23:46:19.474Z,26.20
2022-11-10T23:49:41.069Z,24.20
2022-11-10T23:53:02.700Z,25.50
2022-11-10T23:56:24.347Z,27.40
2022-11-10T23:59:46.088Z,30.10
